This is the latest recevied weather packets stored in our database for station/object KB1JLI. If no packets are shown the sender has not sent any weather packets the latest 1 day(s).
| Time | Temp. | Humidity | Pressure | Rain* | Wind** | Luminosity | Snow |
|---|---|---|---|---|---|---|---|
| 1778015934 | 26.11° C | 42% | 1005.6 hPa | 0 mm | 2.68 m/s, 229° | 68 W/m² | - |
| 1778015631 | 26.11° C | 41% | 1005.5 hPa | 0 mm | 6.26 m/s, 177° | 71 W/m² | - |
| 1778015328 | 26.11° C | 42% | 1005.5 hPa | 0 mm | 2.24 m/s, 227° | 80 W/m² | - |
| 1778015025 | 26.11° C | 42% | 1005.5 hPa | 0 mm | 3.13 m/s, 131° | 83 W/m² | - |
| 1778014721 | 26.11° C | 42% | 1005.3 hPa | 0 mm | 4.47 m/s, 240° | 77 W/m² | - |
| 1778014420 | 26.11° C | 41% | 1005.4 hPa | 0 mm | 4.02 m/s, 208° | 79 W/m² | - |
| 1778014116 | 26.67° C | 41% | 1005.4 hPa | 0 mm | 1.79 m/s, 234° | 82 W/m² | - |
| 1778013814 | 26.67° C | 41% | 1005.4 hPa | 0 mm | 3.58 m/s, 170° | 90 W/m² | - |
| 1778013511 | 26.67° C | 41% | 1005.2 hPa | 0 mm | 2.68 m/s, 145° | 132 W/m² | - |
| 1778013208 | 26.67° C | 41% | 1005.2 hPa | 0 mm | 2.24 m/s, 312° | 136 W/m² | - |
| 1778012904 | 26.67° C | 40% | 1005.4 hPa | 0 mm | 1.79 m/s, 209° | 191 W/m² | - |
| 1778012600 | 27.22° C | 40% | 1005.3 hPa | 0 mm | 1.34 m/s, 313° | 76 W/m² | - |
| 1778012297 | 27.22° C | 39% | 1005.5 hPa | 0 mm | 3.13 m/s, 152° | 188 W/m² | - |
| 1778011995 | 27.22° C | 39% | 1005.4 hPa | 0 mm | 4.02 m/s, 218° | 241 W/m² | - |
| 1778011693 | 27.22° C | 39% | 1005.1 hPa | 0 mm | 1.79 m/s, 212° | 263 W/m² | - |
| 1778011389 | 27.78° C | 39% | 1005.6 hPa | 0 mm | 1.34 m/s, 221° | 370 W/m² | - |
| 1778011085 | 27.78° C | 39% | 1005.5 hPa | 0 mm | 3.58 m/s, 214° | 384 W/m² | - |
| 1778010783 | 27.78° C | 38% | 1005.4 hPa | 0 mm | 3.13 m/s, 198° | 425 W/m² | - |
| 1778010479 | 27.78° C | 38% | 1005.6 hPa | 0 mm | 3.13 m/s, 178° | 461 W/m² | - |
| 1778010176 | 28.33° C | 38% | 1005.3 hPa | 0 mm | 5.81 m/s, 199° | 358 W/m² | - |
| 1778009877 | 27.78° C | 39% | 1005.6 hPa | 0 mm | 1.79 m/s, 211° | 467 W/m² | - |
| 1778009575 | 27.78° C | 40% | 1005.7 hPa | 0 mm | 3.13 m/s, 197° | 479 W/m² | - |
| 1778009273 | 27.22° C | 40% | 1005.8 hPa | 0 mm | 0.89 m/s, 173° | 481 W/m² | - |
| 1778008971 | 27.22° C | 39% | 1005.8 hPa | 0 mm | 0.89 m/s, 179° | 467 W/m² | - |
| 1778008668 | 27.78° C | 40% | 1005.7 hPa | 0 mm | 4.92 m/s, 179° | 506 W/m² | - |
* Rain latest hour (hover to see other rain measurements)
** Current wind speed in m/s (hover to see current wind gust speed)